sensor_id;sensor_type;location;lat;lon;timestamp;P1;durP1;ratioP1;P2;durP2;ratioP2
15077;SDS011;7638;49.760;8.646;2023-02-26T00:00:25;2.07;;;1.20;;
15077;SDS011;7638;49.760;8.646;2023-02-26T00:02:51;2.40;;;1.40;;
15077;SDS011;7638;49.760;8.646;2023-02-26T00:05:17;5.17;;;1.50;;
15077;SDS011;7638;49.760;8.646;2023-02-26T00:07:43;2.83;;;1.43;;
15077;SDS011;7638;49.760;8.646;2023-02-26T00:10:10;3.30;;;1.33;;
15077;SDS011;7638;49.760;8.646;2023-02-26T00:12:37;1.37;;;1.27;;
15077;SDS011;7638;49.760;8.646;2023-02-26T00:15:03;5.30;;;1.93;;
15077;SDS011;7638;49.760;8.646;2023-02-26T00:17:35;1.73;;;1.63;;
15077;SDS011;7638;49.760;8.646;2023-02-26T00:20:03;1.87;;;1.40;;
15077;SDS011;7638;49.760;8.646;2023-02-26T00:22:29;3.23;;;1.20;;
15077;SDS011;7638;49.760;8.646;2023-02-26T00:24:55;3.00;;;1.40;;
15077;SDS011;7638;49.760;8.646;2023-02-26T00:27:21;3.53;;;1.77;;
15077;SDS011;7638;49.760;8.646;2023-02-26T00:29:47;3.40;;;1.47;;
15077;SDS011;7638;49.760;8.646;2023-02-26T00:32:14;2.57;;;1.73;;
15077;SDS011;7638;49.760;8.646;2023-02-26T00:34:42;3.07;;;1.60;;
15077;SDS011;7638;49.760;8.646;2023-02-26T00:42:03;2.77;;;1.73;;
15077;SDS011;7638;49.760;8.646;2023-02-26T00:44:29;2.73;;;1.47;;
15077;SDS011;7638;49.760;8.646;2023-02-26T00:47:40;2.40;;;1.50;;
15077;SDS011;7638;49.760;8.646;2023-02-26T00:54:55;13.90;;;7.07;;
15077;SDS011;7638;49.760;8.646;2023-02-26T00:57:21;22.30;;;9.37;;
15077;SDS011;7638;49.760;8.646;2023-02-26T00:59:47;19.37;;;10.67;;
15077;SDS011;7638;49.760;8.646;2023-02-26T01:02:13;11.40;;;6.90;;
15077;SDS011;7638;49.760;8.646;2023-02-26T01:04:39;6.60;;;3.40;;
15077;SDS011;7638;49.760;8.646;2023-02-26T01:07:06;7.07;;;3.00;;
15077;SDS011;7638;49.760;8.646;2023-02-26T01:09:34;9.13;;;4.27;;
15077;SDS011;7638;49.760;8.646;2023-02-26T01:12:03;8.53;;;4.70;;
15077;SDS011;7638;49.760;8.646;2023-02-26T01:14:30;11.57;;;6.93;;
15077;SDS011;7638;49.760;8.646;2023-02-26T01:17:06;9.93;;;4.43;;
15077;SDS011;7638;49.760;8.646;2023-02-26T01:24:44;4.57;;;2.03;;
15077;SDS011;7638;49.760;8.646;2023-02-26T01:27:12;4.13;;;1.80;;
15077;SDS011;7638;49.760;8.646;2023-02-26T01:29:38;3.33;;;2.03;;
15077;SDS011;7638;49.760;8.646;2023-02-26T01:32:13;4.73;;;2.37;;
15077;SDS011;7638;49.760;8.646;2023-02-26T01:34:45;5.13;;;2.50;;
15077;SDS011;7638;49.760;8.646;2023-02-26T01:39:43;2.93;;;2.00;;
15077;SDS011;7638;49.760;8.646;2023-02-26T01:42:30;4.07;;;1.90;;
15077;SDS011;7638;49.760;8.646;2023-02-26T01:45:04;2.87;;;1.73;;
15077;SDS011;7638;49.760;8.646;2023-02-26T01:50:19;7.17;;;2.00;;
15077;SDS011;7638;49.760;8.646;2023-02-26T01:55:15;8.33;;;2.10;;
15077;SDS011;7638;49.760;8.646;2023-02-26T01:57:41;3.63;;;1.70;;
15077;SDS011;7638;49.760;8.646;2023-02-26T02:00:08;5.07;;;2.23;;
15077;SDS011;7638;49.760;8.646;2023-02-26T02:02:34;11.93;;;2.40;;
15077;SDS011;7638;49.760;8.646;2023-02-26T02:05:04;6.13;;;2.03;;
15077;SDS011;7638;49.760;8.646;2023-02-26T02:07:31;1.70;;;1.47;;
15077;SDS011;7638;49.760;8.646;2023-02-26T02:09:57;2.60;;;1.50;;
15077;SDS011;7638;49.760;8.646;2023-02-26T02:12:30;1.93;;;1.40;;
15077;SDS011;7638;49.760;8.646;2023-02-26T02:23:32;5.43;;;2.00;;
15077;SDS011;7638;49.760;8.646;2023-02-26T02:28:57;1.80;;;1.30;;
15077;SDS011;7638;49.760;8.646;2023-02-26T02:34:14;2.43;;;1.63;;
15077;SDS011;7638;49.760;8.646;2023-02-26T02:36:53;6.77;;;1.83;;
15077;SDS011;7638;49.760;8.646;2023-02-26T02:39:36;5.07;;;1.50;;
15077;SDS011;7638;49.760;8.646;2023-02-26T02:42:27;1.77;;;1.47;;
15077;SDS011;7638;49.760;8.646;2023-02-26T02:45:14;4.03;;;1.90;;
15077;SDS011;7638;49.760;8.646;2023-02-26T02:47:38;3.07;;;1.47;;
15077;SDS011;7638;49.760;8.646;2023-02-26T02:50:08;6.07;;;2.50;;
15077;SDS011;7638;49.760;8.646;2023-02-26T02:55:02;2.17;;;1.43;;
15077;SDS011;7638;49.760;8.646;2023-02-26T02:57:31;5.03;;;1.63;;
15077;SDS011;7638;49.760;8.646;2023-02-26T03:00:00;5.80;;;1.80;;
15077;SDS011;7638;49.760;8.646;2023-02-26T03:02:36;5.37;;;1.93;;
15077;SDS011;7638;49.760;8.646;2023-02-26T03:05:05;4.60;;;1.37;;
15077;SDS011;7638;49.760;8.646;2023-02-26T03:07:33;5.97;;;2.03;;
15077;SDS011;7638;49.760;8.646;2023-02-26T03:10:00;2.83;;;1.37;;
15077;SDS011;7638;49.760;8.646;2023-02-26T03:12:29;3.00;;;1.60;;
15077;SDS011;7638;49.760;8.646;2023-02-26T03:14:55;5.13;;;1.50;;
15077;SDS011;7638;49.760;8.646;2023-02-26T03:28:11;5.23;;;2.00;;
15077;SDS011;7638;49.760;8.646;2023-02-26T03:36:36;4.57;;;1.57;;
15077;SDS011;7638;49.760;8.646;2023-02-26T03:38:33;6.23;;;1.70;;
15077;SDS011;7638;49.760;8.646;2023-02-26T03:41:03;1.50;;;1.40;;
15077;SDS011;7638;49.760;8.646;2023-02-26T03:43:35;2.53;;;1.67;;
15077;SDS011;7638;49.760;8.646;2023-02-26T03:46:03;7.97;;;1.97;;
15077;SDS011;7638;49.760;8.646;2023-02-26T03:48:30;2.23;;;1.20;;
15077;SDS011;7638;49.760;8.646;2023-02-26T03:50:58;4.00;;;1.30;;
15077;SDS011;7638;49.760;8.646;2023-02-26T03:53:28;8.83;;;1.30;;
15077;SDS011;7638;49.760;8.646;2023-02-26T03:56:03;4.47;;;1.70;;
15077;SDS011;7638;49.760;8.646;2023-02-26T03:58:31;3.10;;;1.60;;
15077;SDS011;7638;49.760;8.646;2023-02-26T04:01:02;1.97;;;1.17;;
15077;SDS011;7638;49.760;8.646;2023-02-26T04:05:57;1.43;;;1.27;;
15077;SDS011;7638;49.760;8.646;2023-02-26T04:08:24;2.10;;;1.07;;
15077;SDS011;7638;49.760;8.646;2023-02-26T04:11:03;1.30;;;1.10;;
15077;SDS011;7638;49.760;8.646;2023-02-26T04:13:30;4.73;;;1.50;;
15077;SDS011;7638;49.760;8.646;2023-02-26T04:15:56;2.67;;;1.20;;
15077;SDS011;7638;49.760;8.646;2023-02-26T04:18:22;1.83;;;1.20;;
15077;SDS011;7638;49.760;8.646;2023-02-26T04:20:48;2.03;;;1.20;;
15077;SDS011;7638;49.760;8.646;2023-02-26T04:23:14;1.27;;;1.03;;
15077;SDS011;7638;49.760;8.646;2023-02-26T04:25:40;1.93;;;0.93;;
15077;SDS011;7638;49.760;8.646;2023-02-26T04:28:06;1.23;;;1.13;;
15077;SDS011;7638;49.760;8.646;2023-02-26T04:30:32;3.70;;;1.07;;
15077;SDS011;7638;49.760;8.646;2023-02-26T04:32:58;3.03;;;1.47;;
15077;SDS011;7638;49.760;8.646;2023-02-26T04:35:24;1.90;;;1.00;;
15077;SDS011;7638;49.760;8.646;2023-02-26T04:37:50;3.27;;;1.00;;
15077;SDS011;7638;49.760;8.646;2023-02-26T04:40:16;2.03;;;1.13;;
15077;SDS011;7638;49.760;8.646;2023-02-26T04:42:42;1.23;;;1.13;;
15077;SDS011;7638;49.760;8.646;2023-02-26T04:45:09;2.90;;;1.23;;
15077;SDS011;7638;49.760;8.646;2023-02-26T04:47:35;1.73;;;1.07;;
15077;SDS011;7638;49.760;8.646;2023-02-26T04:50:01;2.03;;;1.00;;
15077;SDS011;7638;49.760;8.646;2023-02-26T04:52:27;1.73;;;0.80;;
15077;SDS011;7638;49.760;8.646;2023-02-26T04:54:53;1.93;;;1.40;;
15077;SDS011;7638;49.760;8.646;2023-02-26T04:57:19;1.77;;;0.83;;
15077;SDS011;7638;49.760;8.646;2023-02-26T04:59:45;5.40;;;1.07;;
15077;SDS011;7638;49.760;8.646;2023-02-26T05:02:11;5.17;;;1.20;;
15077;SDS011;7638;49.760;8.646;2023-02-26T05:04:37;7.50;;;1.50;;
15077;SDS011;7638;49.760;8.646;2023-02-26T05:07:03;1.63;;;1.10;;
15077;SDS011;7638;49.760;8.646;2023-02-26T05:09:29;4.50;;;1.23;;
15077;SDS011;7638;49.760;8.646;2023-02-26T05:11:55;2.80;;;1.30;;
15077;SDS011;7638;49.760;8.646;2023-02-26T05:14:21;2.57;;;1.73;;
15077;SDS011;7638;49.760;8.646;2023-02-26T05:16:47;1.47;;;1.13;;
15077;SDS011;7638;49.760;8.646;2023-02-26T05:19:13;3.27;;;1.83;;
15077;SDS011;7638;49.760;8.646;2023-02-26T05:21:39;3.80;;;1.33;;
15077;SDS011;7638;49.760;8.646;2023-02-26T05:24:05;2.33;;;0.83;;
15077;SDS011;7638;49.760;8.646;2023-02-26T05:26:31;1.87;;;1.33;;
15077;SDS011;7638;49.760;8.646;2023-02-26T05:28:57;3.63;;;1.30;;
15077;SDS011;7638;49.760;8.646;2023-02-26T05:31:23;2.67;;;1.43;;
15077;SDS011;7638;49.760;8.646;2023-02-26T05:33:50;2.60;;;1.73;;
15077;SDS011;7638;49.760;8.646;2023-02-26T05:36:16;1.43;;;1.10;;
15077;SDS011;7638;49.760;8.646;2023-02-26T05:38:42;2.50;;;1.10;;
15077;SDS011;7638;49.760;8.646;2023-02-26T05:41:08;4.30;;;1.37;;
15077;SDS011;7638;49.760;8.646;2023-02-26T05:43:34;1.40;;;1.20;;
15077;SDS011;7638;49.760;8.646;2023-02-26T05:46:00;3.20;;;1.30;;
15077;SDS011;7638;49.760;8.646;2023-02-26T05:48:26;2.97;;;1.60;;
15077;SDS011;7638;49.760;8.646;2023-02-26T05:50:53;3.23;;;1.33;;
15077;SDS011;7638;49.760;8.646;2023-02-26T05:53:19;1.70;;;1.20;;
15077;SDS011;7638;49.760;8.646;2023-02-26T05:55:45;2.87;;;1.43;;
15077;SDS011;7638;49.760;8.646;2023-02-26T05:58:11;4.90;;;1.27;;
15077;SDS011;7638;49.760;8.646;2023-02-26T06:00:37;6.10;;;1.60;;
15077;SDS011;7638;49.760;8.646;2023-02-26T06:03:03;1.63;;;1.40;;
15077;SDS011;7638;49.760;8.646;2023-02-26T06:05:30;7.83;;;1.80;;
15077;SDS011;7638;49.760;8.646;2023-02-26T06:07:56;2.00;;;1.30;;
15077;SDS011;7638;49.760;8.646;2023-02-26T06:10:22;2.67;;;1.27;;
15077;SDS011;7638;49.760;8.646;2023-02-26T06:12:48;3.03;;;1.63;;
15077;SDS011;7638;49.760;8.646;2023-02-26T06:15:14;6.10;;;1.50;;
15077;SDS011;7638;49.760;8.646;2023-02-26T06:17:40;1.20;;;0.90;;
15077;SDS011;7638;49.760;8.646;2023-02-26T06:20:06;4.83;;;1.30;;
15077;SDS011;7638;49.760;8.646;2023-02-26T06:22:32;5.10;;;1.57;;
15077;SDS011;7638;49.760;8.646;2023-02-26T06:24:58;3.97;;;1.60;;
15077;SDS011;7638;49.760;8.646;2023-02-26T06:27:24;3.90;;;1.70;;
15077;SDS011;7638;49.760;8.646;2023-02-26T06:29:50;4.73;;;1.20;;
15077;SDS011;7638;49.760;8.646;2023-02-26T06:32:16;5.30;;;1.40;;
15077;SDS011;7638;49.760;8.646;2023-02-26T06:34:42;3.10;;;1.43;;
15077;SDS011;7638;49.760;8.646;2023-02-26T06:37:08;1.90;;;1.40;;
15077;SDS011;7638;49.760;8.646;2023-02-26T06:39:35;1.93;;;1.50;;
15077;SDS011;7638;49.760;8.646;2023-02-26T06:42:01;2.30;;;1.70;;
15077;SDS011;7638;49.760;8.646;2023-02-26T06:44:27;1.97;;;1.50;;
15077;SDS011;7638;49.760;8.646;2023-02-26T06:46:52;1.83;;;1.33;;
15077;SDS011;7638;49.760;8.646;2023-02-26T06:49:18;2.40;;;1.33;;
15077;SDS011;7638;49.760;8.646;2023-02-26T06:51:44;5.70;;;2.03;;
15077;SDS011;7638;49.760;8.646;2023-02-26T06:54:10;1.80;;;1.13;;
15077;SDS011;7638;49.760;8.646;2023-02-26T06:56:36;3.23;;;1.13;;
15077;SDS011;7638;49.760;8.646;2023-02-26T06:59:02;2.57;;;1.50;;
15077;SDS011;7638;49.760;8.646;2023-02-26T07:01:29;1.90;;;1.43;;
15077;SDS011;7638;49.760;8.646;2023-02-26T07:03:56;1.50;;;1.37;;
15077;SDS011;7638;49.760;8.646;2023-02-26T07:06:22;3.70;;;1.40;;
15077;SDS011;7638;49.760;8.646;2023-02-26T07:08:48;2.20;;;1.40;;
15077;SDS011;7638;49.760;8.646;2023-02-26T07:11:14;3.27;;;1.87;;
15077;SDS011;7638;49.760;8.646;2023-02-26T07:13:40;2.67;;;1.83;;
15077;SDS011;7638;49.760;8.646;2023-02-26T07:16:06;6.07;;;1.90;;
15077;SDS011;7638;49.760;8.646;2023-02-26T07:18:35;2.50;;;1.63;;
15077;SDS011;7638;49.760;8.646;2023-02-26T07:21:02;3.53;;;1.87;;
15077;SDS011;7638;49.760;8.646;2023-02-26T07:23:28;4.60;;;1.63;;
15077;SDS011;7638;49.760;8.646;2023-02-26T07:25:54;4.67;;;1.70;;
15077;SDS011;7638;49.760;8.646;2023-02-26T07:28:20;3.37;;;1.50;;
15077;SDS011;7638;49.760;8.646;2023-02-26T07:30:47;1.77;;;1.30;;
15077;SDS011;7638;49.760;8.646;2023-02-26T07:33:13;4.07;;;1.70;;
15077;SDS011;7638;49.760;8.646;2023-02-26T07:35:39;2.43;;;1.77;;
15077;SDS011;7638;49.760;8.646;2023-02-26T07:38:05;6.60;;;1.93;;
15077;SDS011;7638;49.760;8.646;2023-02-26T07:40:31;9.47;;;2.70;;
15077;SDS011;7638;49.760;8.646;2023-02-26T07:42:57;2.37;;;1.67;;
15077;SDS011;7638;49.760;8.646;2023-02-26T07:45:23;2.10;;;1.60;;
15077;SDS011;7638;49.760;8.646;2023-02-26T07:47:50;2.03;;;1.50;;
15077;SDS011;7638;49.760;8.646;2023-02-26T07:50:16;3.07;;;1.77;;
15077;SDS011;7638;49.760;8.646;2023-02-26T07:52:42;3.63;;;1.50;;
15077;SDS011;7638;49.760;8.646;2023-02-26T07:55:08;3.60;;;1.47;;
15077;SDS011;7638;49.760;8.646;2023-02-26T07:57:34;11.20;;;1.27;;
15077;SDS011;7638;49.760;8.646;2023-02-26T08:00:00;3.73;;;1.47;;
15077;SDS011;7638;49.760;8.646;2023-02-26T08:02:28;2.93;;;1.50;;
15077;SDS011;7638;49.760;8.646;2023-02-26T08:04:54;2.83;;;1.50;;
15077;SDS011;7638;49.760;8.646;2023-02-26T08:07:21;1.50;;;1.40;;
15077;SDS011;7638;49.760;8.646;2023-02-26T08:09:47;5.43;;;1.77;;
15077;SDS011;7638;49.760;8.646;2023-02-26T08:12:13;5.10;;;1.83;;
15077;SDS011;7638;49.760;8.646;2023-02-26T08:14:39;4.10;;;1.63;;
15077;SDS011;7638;49.760;8.646;2023-02-26T08:17:06;2.63;;;1.60;;
15077;SDS011;7638;49.760;8.646;2023-02-26T08:19:32;2.63;;;1.50;;
15077;SDS011;7638;49.760;8.646;2023-02-26T08:21:58;5.63;;;1.73;;
15077;SDS011;7638;49.760;8.646;2023-02-26T08:24:24;1.77;;;1.60;;
15077;SDS011;7638;49.760;8.646;2023-02-26T08:26:50;1.87;;;1.50;;
15077;SDS011;7638;49.760;8.646;2023-02-26T08:29:16;3.50;;;2.10;;
15077;SDS011;7638;49.760;8.646;2023-02-26T08:31:42;3.77;;;1.80;;
15077;SDS011;7638;49.760;8.646;2023-02-26T08:34:08;5.90;;;1.77;;
15077;SDS011;7638;49.760;8.646;2023-02-26T08:36:34;2.17;;;1.63;;
15077;SDS011;7638;49.760;8.646;2023-02-26T08:39:00;1.83;;;1.50;;
15077;SDS011;7638;49.760;8.646;2023-02-26T08:41:26;1.67;;;1.30;;
15077;SDS011;7638;49.760;8.646;2023-02-26T08:43:54;6.60;;;1.40;;
15077;SDS011;7638;49.760;8.646;2023-02-26T08:46:20;2.77;;;1.80;;
15077;SDS011;7638;49.760;8.646;2023-02-26T08:48:46;6.73;;;1.90;;
15077;SDS011;7638;49.760;8.646;2023-02-26T08:51:12;4.80;;;1.47;;
15077;SDS011;7638;49.760;8.646;2023-02-26T08:53:38;2.17;;;1.40;;
15077;SDS011;7638;49.760;8.646;2023-02-26T08:56:05;2.27;;;1.60;;
15077;SDS011;7638;49.760;8.646;2023-02-26T08:58:31;1.97;;;1.50;;
15077;SDS011;7638;49.760;8.646;2023-02-26T09:01:02;3.63;;;1.30;;
15077;SDS011;7638;49.760;8.646;2023-02-26T09:03:29;1.67;;;1.43;;
15077;SDS011;7638;49.760;8.646;2023-02-26T09:05:55;2.13;;;1.47;;
15077;SDS011;7638;49.760;8.646;2023-02-26T09:08:21;3.33;;;1.40;;
15077;SDS011;7638;49.760;8.646;2023-02-26T09:10:47;2.73;;;1.57;;
15077;SDS011;7638;49.760;8.646;2023-02-26T09:13:13;6.57;;;1.83;;
15077;SDS011;7638;49.760;8.646;2023-02-26T09:15:39;1.87;;;1.20;;
15077;SDS011;7638;49.760;8.646;2023-02-26T09:18:05;1.60;;;1.30;;
15077;SDS011;7638;49.760;8.646;2023-02-26T09:20:31;1.17;;;1.07;;
15077;SDS011;7638;49.760;8.646;2023-02-26T09:22:57;1.43;;;1.07;;
15077;SDS011;7638;49.760;8.646;2023-02-26T09:25:23;2.00;;;1.37;;
15077;SDS011;7638;49.760;8.646;2023-02-26T09:27:49;3.53;;;1.70;;
15077;SDS011;7638;49.760;8.646;2023-02-26T09:30:15;2.07;;;1.20;;
15077;SDS011;7638;49.760;8.646;2023-02-26T09:32:41;1.27;;;1.10;;
15077;SDS011;7638;49.760;8.646;2023-02-26T09:35:08;1.20;;;1.10;;
15077;SDS011;7638;49.760;8.646;2023-02-26T09:37:35;1.37;;;1.23;;
15077;SDS011;7638;49.760;8.646;2023-02-26T09:40:01;1.57;;;1.10;;
15077;SDS011;7638;49.760;8.646;2023-02-26T09:42:31;2.80;;;0.80;;
15077;SDS011;7638;49.760;8.646;2023-02-26T09:45:00;1.90;;;1.37;;
15077;SDS011;7638;49.760;8.646;2023-02-26T09:47:28;5.03;;;1.10;;
15077;SDS011;7638;49.760;8.646;2023-02-26T09:50:05;1.97;;;1.03;;
15077;SDS011;7638;49.760;8.646;2023-02-26T09:52:36;3.23;;;1.53;;
15077;SDS011;7638;49.760;8.646;2023-02-26T09:55:08;4.90;;;1.57;;
15077;SDS011;7638;49.760;8.646;2023-02-26T09:57:36;2.87;;;1.40;;
15077;SDS011;7638;49.760;8.646;2023-02-26T10:03:08;2.13;;;1.53;;
15077;SDS011;7638;49.760;8.646;2023-02-26T10:05:42;1.83;;;1.30;;
15077;SDS011;7638;49.760;8.646;2023-02-26T10:08:13;2.87;;;1.70;;
15077;SDS011;7638;49.760;8.646;2023-02-26T10:13:07;5.53;;;1.77;;
15077;SDS011;7638;49.760;8.646;2023-02-26T10:15:39;1.83;;;1.20;;
15077;SDS011;7638;49.760;8.646;2023-02-26T10:23:11;1.73;;;1.00;;
15077;SDS011;7638;49.760;8.646;2023-02-26T10:25:43;3.03;;;1.40;;
15077;SDS011;7638;49.760;8.646;2023-02-26T10:30:57;1.20;;;1.10;;
15077;SDS011;7638;49.760;8.646;2023-02-26T10:36:28;1.23;;;1.13;;
15077;SDS011;7638;49.760;8.646;2023-02-26T10:38:57;2.67;;;1.30;;
15077;SDS011;7638;49.760;8.646;2023-02-26T10:41:27;1.33;;;1.23;;
15077;SDS011;7638;49.760;8.646;2023-02-26T10:43:57;2.63;;;1.47;;
15077;SDS011;7638;49.760;8.646;2023-02-26T10:51:18;1.73;;;1.20;;
15077;SDS011;7638;49.760;8.646;2023-02-26T10:53:50;2.47;;;1.40;;
15077;SDS011;7638;49.760;8.646;2023-02-26T10:56:26;1.63;;;1.23;;
15077;SDS011;7638;49.760;8.646;2023-02-26T10:58:55;2.43;;;1.27;;
15077;SDS011;7638;49.760;8.646;2023-02-26T11:01:22;2.03;;;1.10;;
15077;SDS011;7638;49.760;8.646;2023-02-26T11:03:50;1.17;;;0.80;;
15077;SDS011;7638;49.760;8.646;2023-02-26T11:09:03;1.20;;;1.10;;
15077;SDS011;7638;49.760;8.646;2023-02-26T11:11:34;2.97;;;1.30;;
15077;SDS011;7638;49.760;8.646;2023-02-26T11:14:01;4.30;;;1.60;;
15077;SDS011;7638;49.760;8.646;2023-02-26T11:16:27;1.37;;;0.80;;
15077;SDS011;7638;49.760;8.646;2023-02-26T11:18:53;1.53;;;0.90;;
15077;SDS011;7638;49.760;8.646;2023-02-26T11:21:24;2.20;;;0.90;;
15077;SDS011;7638;49.760;8.646;2023-02-26T11:23:52;1.80;;;1.10;;
15077;SDS011;7638;49.760;8.646;2023-02-26T11:26:24;3.83;;;1.43;;
15077;SDS011;7638;49.760;8.646;2023-02-26T11:28:52;2.00;;;1.03;;
15077;SDS011;7638;49.760;8.646;2023-02-26T11:31:19;0.90;;;0.70;;
15077;SDS011;7638;49.760;8.646;2023-02-26T11:33:50;1.57;;;0.87;;
15077;SDS011;7638;49.760;8.646;2023-02-26T11:36:20;1.07;;;0.90;;
15077;SDS011;7638;49.760;8.646;2023-02-26T11:38:51;2.57;;;1.40;;
15077;SDS011;7638;49.760;8.646;2023-02-26T11:41:18;1.57;;;0.80;;
15077;SDS011;7638;49.760;8.646;2023-02-26T11:43:46;1.97;;;1.30;;
15077;SDS011;7638;49.760;8.646;2023-02-26T11:46:13;2.37;;;1.10;;
15077;SDS011;7638;49.760;8.646;2023-02-26T11:48:43;2.27;;;1.13;;
15077;SDS011;7638;49.760;8.646;2023-02-26T11:51:14;6.37;;;1.50;;
15077;SDS011;7638;49.760;8.646;2023-02-26T11:53:48;3.83;;;1.43;;
15077;SDS011;7638;49.760;8.646;2023-02-26T11:56:18;4.80;;;1.77;;
15077;SDS011;7638;49.760;8.646;2023-02-26T11:58:45;2.63;;;1.30;;
15077;SDS011;7638;49.760;8.646;2023-02-26T12:01:14;2.60;;;1.50;;
15077;SDS011;7638;49.760;8.646;2023-02-26T12:03:43;2.17;;;0.90;;
15077;SDS011;7638;49.760;8.646;2023-02-26T12:06:17;2.17;;;1.10;;
15077;SDS011;7638;49.760;8.646;2023-02-26T12:08:44;2.77;;;1.37;;
15077;SDS011;7638;49.760;8.646;2023-02-26T12:31:13;0.97;;;0.87;;
15077;SDS011;7638;49.760;8.646;2023-02-26T12:33:47;2.03;;;1.40;;
15077;SDS011;7638;49.760;8.646;2023-02-26T12:43:48;2.83;;;0.60;;
15077;SDS011;7638;49.760;8.646;2023-02-26T12:46:17;3.20;;;0.90;;
15077;SDS011;7638;49.760;8.646;2023-02-26T12:51:17;3.03;;;1.00;;
15077;SDS011;7638;49.760;8.646;2023-02-26T13:01:53;2.03;;;0.90;;
15077;SDS011;7638;49.760;8.646;2023-02-26T13:10:05;0.60;;;0.60;;
15077;SDS011;7638;49.760;8.646;2023-02-26T13:20:17;4.73;;;1.50;;
15077;SDS011;7638;49.760;8.646;2023-02-26T13:22:46;1.20;;;1.13;;
15077;SDS011;7638;49.760;8.646;2023-02-26T13:27:42;1.57;;;0.90;;
15077;SDS011;7638;49.760;8.646;2023-02-26T13:30:21;4.43;;;2.20;;
15077;SDS011;7638;49.760;8.646;2023-02-26T13:32:49;6.13;;;3.40;;
15077;SDS011;7638;49.760;8.646;2023-02-26T13:35:19;6.20;;;1.97;;
15077;SDS011;7638;49.760;8.646;2023-02-26T13:37:47;1.10;;;0.83;;
15077;SDS011;7638;49.760;8.646;2023-02-26T13:45:30;2.40;;;1.50;;
15077;SDS011;7638;49.760;8.646;2023-02-26T13:55:42;1.10;;;0.80;;
15077;SDS011;7638;49.760;8.646;2023-02-26T13:58:43;1.67;;;0.90;;
15077;SDS011;7638;49.760;8.646;2023-02-26T14:03:42;1.27;;;0.93;;
15077;SDS011;7638;49.760;8.646;2023-02-26T14:08:45;1.07;;;0.90;;
15077;SDS011;7638;49.760;8.646;2023-02-26T14:16:51;0.60;;;0.60;;
15077;SDS011;7638;49.760;8.646;2023-02-26T14:26:43;2.27;;;0.90;;
15077;SDS011;7638;49.760;8.646;2023-02-26T14:29:56;2.07;;;1.10;;
15077;SDS011;7638;49.760;8.646;2023-02-26T14:34:25;1.77;;;1.00;;
15077;SDS011;7638;49.760;8.646;2023-02-26T14:36:53;1.30;;;0.80;;
15077;SDS011;7638;49.760;8.646;2023-02-26T14:39:25;0.80;;;0.80;;
15077;SDS011;7638;49.760;8.646;2023-02-26T14:41:54;1.27;;;1.13;;
15077;SDS011;7638;49.760;8.646;2023-02-26T14:44:23;0.57;;;0.57;;
15077;SDS011;7638;49.760;8.646;2023-02-26T14:46:50;0.70;;;0.70;;
15077;SDS011;7638;49.760;8.646;2023-02-26T14:49:18;2.03;;;0.70;;
15077;SDS011;7638;49.760;8.646;2023-02-26T14:51:54;1.00;;;0.80;;
15077;SDS011;7638;49.760;8.646;2023-02-26T14:57:03;1.23;;;0.70;;
15077;SDS011;7638;49.760;8.646;2023-02-26T14:59:40;1.57;;;0.90;;
15077;SDS011;7638;49.760;8.646;2023-02-26T15:10:17;1.77;;;1.10;;
15077;SDS011;7638;49.760;8.646;2023-02-26T15:17:51;1.90;;;1.27;;
15077;SDS011;7638;49.760;8.646;2023-02-26T15:25:31;2.27;;;1.20;;
15077;SDS011;7638;49.760;8.646;2023-02-26T15:27:58;2.47;;;0.67;;
15077;SDS011;7638;49.760;8.646;2023-02-26T15:30:24;3.63;;;1.00;;
15077;SDS011;7638;49.760;8.646;2023-02-26T15:32:55;0.80;;;0.80;;
15077;SDS011;7638;49.760;8.646;2023-02-26T15:35:21;1.80;;;0.73;;
15077;SDS011;7638;49.760;8.646;2023-02-26T15:37:55;1.20;;;0.80;;
15077;SDS011;7638;49.760;8.646;2023-02-26T15:40:22;1.80;;;1.13;;
15077;SDS011;7638;49.760;8.646;2023-02-26T15:42:49;1.57;;;1.03;;
15077;SDS011;7638;49.760;8.646;2023-02-26T15:48:02;4.00;;;1.47;;
15077;SDS011;7638;49.760;8.646;2023-02-26T15:50:30;1.33;;;0.80;;
15077;SDS011;7638;49.760;8.646;2023-02-26T15:53:01;2.07;;;1.10;;
15077;SDS011;7638;49.760;8.646;2023-02-26T15:55:30;1.70;;;1.30;;
15077;SDS011;7638;49.760;8.646;2023-02-26T15:57:57;2.20;;;1.67;;
15077;SDS011;7638;49.760;8.646;2023-02-26T16:00:23;2.63;;;1.20;;
15077;SDS011;7638;49.760;8.646;2023-02-26T16:02:51;2.73;;;1.00;;
15077;SDS011;7638;49.760;8.646;2023-02-26T16:05:18;1.33;;;0.90;;
15077;SDS011;7638;49.760;8.646;2023-02-26T16:07:44;1.77;;;1.00;;
15077;SDS011;7638;49.760;8.646;2023-02-26T16:10:15;2.63;;;1.60;;
15077;SDS011;7638;49.760;8.646;2023-02-26T16:12:42;2.73;;;1.20;;
15077;SDS011;7638;49.760;8.646;2023-02-26T16:15:12;2.30;;;1.77;;
15077;SDS011;7638;49.760;8.646;2023-02-26T16:17:41;0.77;;;0.77;;
15077;SDS011;7638;49.760;8.646;2023-02-26T16:20:16;1.43;;;0.77;;
15077;SDS011;7638;49.760;8.646;2023-02-26T16:22:45;1.00;;;0.70;;
15077;SDS011;7638;49.760;8.646;2023-02-26T16:27:49;1.27;;;1.13;;
15077;SDS011;7638;49.760;8.646;2023-02-26T16:30:17;0.77;;;0.70;;
15077;SDS011;7638;49.760;8.646;2023-02-26T16:32:46;2.70;;;0.97;;
15077;SDS011;7638;49.760;8.646;2023-02-26T16:35:16;1.23;;;0.90;;
15077;SDS011;7638;49.760;8.646;2023-02-26T16:37:46;1.07;;;0.77;;
15077;SDS011;7638;49.760;8.646;2023-02-26T16:48:23;0.80;;;0.80;;
15077;SDS011;7638;49.760;8.646;2023-02-26T16:50:57;2.00;;;1.07;;
15077;SDS011;7638;49.760;8.646;2023-02-26T16:53:29;1.97;;;1.50;;
15077;SDS011;7638;49.760;8.646;2023-02-26T16:55:56;3.87;;;1.30;;
15077;SDS011;7638;49.760;8.646;2023-02-26T16:58:23;3.03;;;1.00;;
15077;SDS011;7638;49.760;8.646;2023-02-26T17:00:51;3.93;;;0.93;;
15077;SDS011;7638;49.760;8.646;2023-02-26T17:03:22;3.30;;;2.30;;
15077;SDS011;7638;49.760;8.646;2023-02-26T17:05:57;3.43;;;0.90;;
15077;SDS011;7638;49.760;8.646;2023-02-26T17:08:31;3.27;;;1.33;;
15077;SDS011;7638;49.760;8.646;2023-02-26T17:13:26;1.43;;;0.90;;
15077;SDS011;7638;49.760;8.646;2023-02-26T17:15:52;5.83;;;1.30;;
15077;SDS011;7638;49.760;8.646;2023-02-26T17:18:19;12.40;;;6.63;;
15077;SDS011;7638;49.760;8.646;2023-02-26T17:20:45;1.43;;;1.13;;
15077;SDS011;7638;49.760;8.646;2023-02-26T17:23:13;1.30;;;1.10;;
15077;SDS011;7638;49.760;8.646;2023-02-26T17:25:41;1.37;;;1.10;;
15077;SDS011;7638;49.760;8.646;2023-02-26T17:28:07;1.93;;;1.30;;
15077;SDS011;7638;49.760;8.646;2023-02-26T17:30:35;2.20;;;1.10;;
15077;SDS011;7638;49.760;8.646;2023-02-26T17:33:02;3.23;;;1.80;;
15077;SDS011;7638;49.760;8.646;2023-02-26T17:35:29;1.20;;;1.10;;
15077;SDS011;7638;49.760;8.646;2023-02-26T17:37:55;1.33;;;1.10;;
15077;SDS011;7638;49.760;8.646;2023-02-26T17:40:25;2.60;;;1.57;;
15077;SDS011;7638;49.760;8.646;2023-02-26T17:42:51;3.10;;;2.40;;
15077;SDS011;7638;49.760;8.646;2023-02-26T17:45:17;3.10;;;1.63;;
15077;SDS011;7638;49.760;8.646;2023-02-26T17:47:44;1.20;;;1.10;;
15077;SDS011;7638;49.760;8.646;2023-02-26T17:52:43;3.10;;;1.80;;
15077;SDS011;7638;49.760;8.646;2023-02-26T17:55:10;5.43;;;2.60;;
15077;SDS011;7638;49.760;8.646;2023-02-26T17:57:36;4.97;;;2.50;;
15077;SDS011;7638;49.760;8.646;2023-02-26T18:00:02;3.67;;;1.77;;
15077;SDS011;7638;49.760;8.646;2023-02-26T18:02:29;1.30;;;1.20;;
15077;SDS011;7638;49.760;8.646;2023-02-26T18:04:55;4.47;;;1.87;;
15077;SDS011;7638;49.760;8.646;2023-02-26T18:07:22;3.13;;;2.20;;
15077;SDS011;7638;49.760;8.646;2023-02-26T18:09:48;4.23;;;1.60;;
15077;SDS011;7638;49.760;8.646;2023-02-26T18:12:15;4.63;;;1.83;;
15077;SDS011;7638;49.760;8.646;2023-02-26T18:14:41;6.17;;;1.93;;
15077;SDS011;7638;49.760;8.646;2023-02-26T18:17:11;5.50;;;1.70;;
15077;SDS011;7638;49.760;8.646;2023-02-26T18:19:38;0.93;;;0.83;;
15077;SDS011;7638;49.760;8.646;2023-02-26T18:22:07;2.90;;;1.33;;
15077;SDS011;7638;49.760;8.646;2023-02-26T18:24:33;1.90;;;1.40;;
15077;SDS011;7638;49.760;8.646;2023-02-26T18:26:59;5.27;;;2.10;;
15077;SDS011;7638;49.760;8.646;2023-02-26T18:29:25;3.40;;;2.03;;
15077;SDS011;7638;49.760;8.646;2023-02-26T18:31:51;2.30;;;1.83;;
15077;SDS011;7638;49.760;8.646;2023-02-26T18:34:17;2.97;;;2.10;;